This is the latest recevied weather packets stored in our database for station/object KA4YMY. If no packets are shown the sender has not sent any weather packets the latest 10 day(s).
| Time | Temp. | Humidity | Pressure | Rain* | Wind** | Luminosity | Snow |
|---|---|---|---|---|---|---|---|
| 1777562716 | 20.56° C | 63% | 1010.3 hPa | 0 mm | - | - | - |
| 1777562116 | 20° C | 65% | 1010.3 hPa | 0 mm | - | - | - |
| 1777561516 | 19.44° C | 63% | 1010.2 hPa | 0 mm | - | - | - |
| 1777560916 | 19.44° C | 66% | 1010.3 hPa | 0 mm | - | - | - |
| 1777560316 | 18.89° C | 73% | 1010.1 hPa | 0 mm | - | - | - |
| 1777559716 | 17.78° C | 78% | 1010.3 hPa | 0 mm | - | - | - |
| 1777559116 | 16.67° C | 84% | 1010.3 hPa | 0 mm | - | - | - |
| 1777558516 | 15.56° C | 89% | 1010.3 hPa | 0 mm | - | - | - |
| 1777557916 | 15° C | 89% | 1010.3 hPa | 0 mm | - | - | - |
| 1777557316 | 15° C | 89% | 1010.5 hPa | 0.25 mm | - | - | - |
| 1777556716 | 15° C | 89% | 1010.4 hPa | 0.25 mm | - | - | - |
| 1777556116 | 15° C | 89% | 1010.7 hPa | 0.25 mm | - | - | - |
| 1777555516 | 15° C | 88% | 1010.3 hPa | 0.25 mm | - | - | - |
| 1777554916 | 15° C | 88% | 1010.1 hPa | 0.25 mm | - | - | - |
| 1777554316 | 15.56° C | 88% | 1010.4 hPa | 0.25 mm | - | - | - |
| 1777553716 | 15.56° C | 88% | 1010.9 hPa | 0 mm | - | - | - |
| 1777553116 | 15.56° C | 86% | 1011.1 hPa | 0 mm | - | - | - |
| 1777552516 | 15.56° C | 85% | 1011.3 hPa | 0 mm | - | - | - |
| 1777551916 | 16.11° C | 84% | 1011.5 hPa | 0 mm | - | - | - |
| 1777551316 | 16.11° C | 83% | 1011.5 hPa | 0 mm | - | - | - |
| 1777550716 | 16.11° C | 83% | 1011.2 hPa | 0 mm | - | - | - |
| 1777550116 | 16.11° C | 80% | 1011 hPa | 0 mm | - | - | - |
| 1777549516 | 16.67° C | 79% | 1011 hPa | 0 mm | - | - | - |
| 1777548916 | 16.67° C | 79% | 1010.5 hPa | 0 mm | - | - | - |
| 1777548316 | 16.67° C | 79% | 1010.9 hPa | 0 mm | - | - | - |
* Rain latest hour (hover to see other rain measurements)
** Current wind speed in m/s (hover to see current wind gust speed)